sensor_id;sensor_type;location;lat;lon;timestamp;temperature;humidity
22430;DHT22;11382;48.086;11.632;2023-06-04T00:00:01;13.20;99.90
22430;DHT22;11382;48.086;11.632;2023-06-04T00:02:31;13.20;99.90
22430;DHT22;11382;48.086;11.632;2023-06-04T00:04:59;13.00;99.90
22430;DHT22;11382;48.086;11.632;2023-06-04T00:07:27;12.90;99.90
22430;DHT22;11382;48.086;11.632;2023-06-04T00:09:55;12.80;99.90
22430;DHT22;11382;48.086;11.632;2023-06-04T00:12:24;12.80;99.90
22430;DHT22;11382;48.086;11.632;2023-06-04T00:14:52;12.70;99.90
22430;DHT22;11382;48.086;11.632;2023-06-04T00:17:20;12.60;99.90
22430;DHT22;11382;48.086;11.632;2023-06-04T00:19:48;12.60;99.90
22430;DHT22;11382;48.086;11.632;2023-06-04T00:22:16;12.60;99.90
22430;DHT22;11382;48.086;11.632;2023-06-04T00:24:44;12.50;99.90
22430;DHT22;11382;48.086;11.632;2023-06-04T00:27:12;12.50;99.90
22430;DHT22;11382;48.086;11.632;2023-06-04T00:29:41;12.50;99.90
22430;DHT22;11382;48.086;11.632;2023-06-04T00:32:09;12.40;99.90
22430;DHT22;11382;48.086;11.632;2023-06-04T00:34:37;12.30;99.90
22430;DHT22;11382;48.086;11.632;2023-06-04T00:37:05;12.20;99.90
22430;DHT22;11382;48.086;11.632;2023-06-04T00:39:33;12.30;99.90
22430;DHT22;11382;48.086;11.632;2023-06-04T00:42:01;12.30;99.90
22430;DHT22;11382;48.086;11.632;2023-06-04T00:44:29;12.30;99.90
22430;DHT22;11382;48.086;11.632;2023-06-04T00:46:59;12.30;99.90
22430;DHT22;11382;48.086;11.632;2023-06-04T00:49:27;12.10;99.90
22430;DHT22;11382;48.086;11.632;2023-06-04T00:51:55;12.10;99.90
22430;DHT22;11382;48.086;11.632;2023-06-04T00:54:24;12.00;99.90
22430;DHT22;11382;48.086;11.632;2023-06-04T00:56:52;12.00;99.90
22430;DHT22;11382;48.086;11.632;2023-06-04T00:59:21;11.90;99.90
22430;DHT22;11382;48.086;11.632;2023-06-04T01:01:52;11.90;99.90
22430;DHT22;11382;48.086;11.632;2023-06-04T01:04:27;11.80;99.90
22430;DHT22;11382;48.086;11.632;2023-06-04T01:06:57;11.60;99.90
22430;DHT22;11382;48.086;11.632;2023-06-04T01:09:28;11.40;99.90
22430;DHT22;11382;48.086;11.632;2023-06-04T01:11:57;11.30;99.90
22430;DHT22;11382;48.086;11.632;2023-06-04T01:14:25;11.30;99.90
22430;DHT22;11382;48.086;11.632;2023-06-04T01:16:56;11.10;99.90
22430;DHT22;11382;48.086;11.632;2023-06-04T01:20:16;11.10;99.90
22430;DHT22;11382;48.086;11.632;2023-06-04T01:22:56;11.10;99.90
22430;DHT22;11382;48.086;11.632;2023-06-04T01:25:33;11.10;99.90
22430;DHT22;11382;48.086;11.632;2023-06-04T01:28:05;11.10;99.90
22430;DHT22;11382;48.086;11.632;2023-06-04T01:30:34;11.20;99.90
22430;DHT22;11382;48.086;11.632;2023-06-04T01:33:03;11.20;99.90
22430;DHT22;11382;48.086;11.632;2023-06-04T01:35:32;11.10;99.90
22430;DHT22;11382;48.086;11.632;2023-06-04T01:38:01;11.10;99.90
22430;DHT22;11382;48.086;11.632;2023-06-04T01:40:29;11.00;99.90
22430;DHT22;11382;48.086;11.632;2023-06-04T01:42:57;10.90;99.90
22430;DHT22;11382;48.086;11.632;2023-06-04T01:45:26;10.90;99.90
22430;DHT22;11382;48.086;11.632;2023-06-04T01:47:55;10.80;99.90
22430;DHT22;11382;48.086;11.632;2023-06-04T01:50:23;10.80;99.90
22430;DHT22;11382;48.086;11.632;2023-06-04T01:52:53;10.70;99.90
22430;DHT22;11382;48.086;11.632;2023-06-04T01:55:22;10.60;99.90
22430;DHT22;11382;48.086;11.632;2023-06-04T01:57:52;10.60;99.90
22430;DHT22;11382;48.086;11.632;2023-06-04T02:00:20;10.60;99.90
22430;DHT22;11382;48.086;11.632;2023-06-04T02:02:49;10.50;99.90
22430;DHT22;11382;48.086;11.632;2023-06-04T02:05:17;10.30;99.90
22430;DHT22;11382;48.086;11.632;2023-06-04T02:07:46;10.20;99.90
22430;DHT22;11382;48.086;11.632;2023-06-04T02:10:17;10.20;99.90
22430;DHT22;11382;48.086;11.632;2023-06-04T02:12:56;10.30;99.90
22430;DHT22;11382;48.086;11.632;2023-06-04T02:15:25;10.30;99.90
22430;DHT22;11382;48.086;11.632;2023-06-04T02:17:56;10.30;99.90
22430;DHT22;11382;48.086;11.632;2023-06-04T02:20:26;10.30;99.90
22430;DHT22;11382;48.086;11.632;2023-06-04T02:22:54;10.20;99.90
22430;DHT22;11382;48.086;11.632;2023-06-04T02:25:24;10.10;99.90
22430;DHT22;11382;48.086;11.632;2023-06-04T02:27:52;10.00;99.90
22430;DHT22;11382;48.086;11.632;2023-06-04T02:30:20;10.00;99.90
22430;DHT22;11382;48.086;11.632;2023-06-04T02:32:48;10.00;99.90
22430;DHT22;11382;48.086;11.632;2023-06-04T02:35:18;10.00;99.90
22430;DHT22;11382;48.086;11.632;2023-06-04T02:37:48;10.00;99.90
22430;DHT22;11382;48.086;11.632;2023-06-04T02:40:16;9.90;99.90
22430;DHT22;11382;48.086;11.632;2023-06-04T02:42:45;9.80;99.90
22430;DHT22;11382;48.086;11.632;2023-06-04T02:45:13;9.60;99.90
22430;DHT22;11382;48.086;11.632;2023-06-04T02:47:41;9.70;99.90
22430;DHT22;11382;48.086;11.632;2023-06-04T02:50:10;9.80;99.90
22430;DHT22;11382;48.086;11.632;2023-06-04T02:52:39;9.70;99.90
22430;DHT22;11382;48.086;11.632;2023-06-04T02:55:10;9.60;99.90
22430;DHT22;11382;48.086;11.632;2023-06-04T02:57:39;9.70;99.90
22430;DHT22;11382;48.086;11.632;2023-06-04T03:00:11;9.70;99.90
22430;DHT22;11382;48.086;11.632;2023-06-04T03:02:41;9.80;99.90
22430;DHT22;11382;48.086;11.632;2023-06-04T03:05:11;9.70;99.90
22430;DHT22;11382;48.086;11.632;2023-06-04T03:07:42;9.60;99.90
22430;DHT22;11382;48.086;11.632;2023-06-04T03:10:12;9.50;99.90
22430;DHT22;11382;48.086;11.632;2023-06-04T03:12:40;9.50;99.90
22430;DHT22;11382;48.086;11.632;2023-06-04T03:15:10;9.60;99.90
22430;DHT22;11382;48.086;11.632;2023-06-04T03:17:39;9.60;99.90
22430;DHT22;11382;48.086;11.632;2023-06-04T03:20:08;9.60;99.90
22430;DHT22;11382;48.086;11.632;2023-06-04T03:22:37;9.60;99.90
22430;DHT22;11382;48.086;11.632;2023-06-04T03:25:05;9.60;99.90
22430;DHT22;11382;48.086;11.632;2023-06-04T03:27:34;9.60;99.90
22430;DHT22;11382;48.086;11.632;2023-06-04T03:30:04;9.50;99.90
22430;DHT22;11382;48.086;11.632;2023-06-04T03:32:52;9.50;99.90
22430;DHT22;11382;48.086;11.632;2023-06-04T03:35:20;9.40;99.90
22430;DHT22;11382;48.086;11.632;2023-06-04T03:37:48;9.30;99.90
22430;DHT22;11382;48.086;11.632;2023-06-04T03:40:16;9.40;99.90
22430;DHT22;11382;48.086;11.632;2023-06-04T03:42:46;9.60;99.90
22430;DHT22;11382;48.086;11.632;2023-06-04T03:45:16;9.70;99.90
22430;DHT22;11382;48.086;11.632;2023-06-04T03:47:45;9.80;99.90
22430;DHT22;11382;48.086;11.632;2023-06-04T03:50:18;9.80;99.90
22430;DHT22;11382;48.086;11.632;2023-06-04T03:52:46;9.90;99.90
22430;DHT22;11382;48.086;11.632;2023-06-04T03:55:14;9.90;99.90
22430;DHT22;11382;48.086;11.632;2023-06-04T03:57:43;9.80;99.90
22430;DHT22;11382;48.086;11.632;2023-06-04T04:00:14;9.90;99.90
22430;DHT22;11382;48.086;11.632;2023-06-04T04:02:48;10.20;99.90
22430;DHT22;11382;48.086;11.632;2023-06-04T04:05:22;10.40;99.90
22430;DHT22;11382;48.086;11.632;2023-06-04T04:07:50;10.50;99.90
22430;DHT22;11382;48.086;11.632;2023-06-04T04:10:23;10.50;99.90
22430;DHT22;11382;48.086;11.632;2023-06-04T04:12:51;10.80;99.90
22430;DHT22;11382;48.086;11.632;2023-06-04T04:15:21;11.10;99.90
22430;DHT22;11382;48.086;11.632;2023-06-04T04:17:50;11.50;99.90
22430;DHT22;11382;48.086;11.632;2023-06-04T04:20:18;11.80;99.90
22430;DHT22;11382;48.086;11.632;2023-06-04T04:22:55;12.40;99.90
22430;DHT22;11382;48.086;11.632;2023-06-04T04:25:24;13.10;99.90
22430;DHT22;11382;48.086;11.632;2023-06-04T04:27:52;13.70;99.90
22430;DHT22;11382;48.086;11.632;2023-06-04T04:30:24;14.30;99.90
22430;DHT22;11382;48.086;11.632;2023-06-04T04:32:52;15.00;99.90
22430;DHT22;11382;48.086;11.632;2023-06-04T04:35:27;15.40;99.90
22430;DHT22;11382;48.086;11.632;2023-06-04T04:37:59;15.80;99.90
22430;DHT22;11382;48.086;11.632;2023-06-04T04:40:33;16.10;99.90
22430;DHT22;11382;48.086;11.632;2023-06-04T04:43:05;16.20;99.90
22430;DHT22;11382;48.086;11.632;2023-06-04T04:45:34;16.30;99.90
22430;DHT22;11382;48.086;11.632;2023-06-04T04:48:05;16.80;99.90
22430;DHT22;11382;48.086;11.632;2023-06-04T04:50:33;17.40;99.90
22430;DHT22;11382;48.086;11.632;2023-06-04T04:53:03;17.90;99.90
22430;DHT22;11382;48.086;11.632;2023-06-04T04:55:33;18.50;99.90
22430;DHT22;11382;48.086;11.632;2023-06-04T04:58:01;19.10;99.90
22430;DHT22;11382;48.086;11.632;2023-06-04T05:00:29;19.50;99.90
22430;DHT22;11382;48.086;11.632;2023-06-04T05:02:57;19.80;99.90
22430;DHT22;11382;48.086;11.632;2023-06-04T05:05:25;20.60;99.90
22430;DHT22;11382;48.086;11.632;2023-06-04T05:07:53;21.30;99.90
22430;DHT22;11382;48.086;11.632;2023-06-04T05:10:29;21.60;99.90
22430;DHT22;11382;48.086;11.632;2023-06-04T05:12:59;22.40;98.10
22430;DHT22;11382;48.086;11.632;2023-06-04T05:15:36;22.80;96.00
22430;DHT22;11382;48.086;11.632;2023-06-04T05:18:07;23.00;95.60
22430;DHT22;11382;48.086;11.632;2023-06-04T05:20:38;23.20;93.80
22430;DHT22;11382;48.086;11.632;2023-06-04T05:23:09;24.00;94.20
22430;DHT22;11382;48.086;11.632;2023-06-04T05:25:40;24.50;90.90
22430;DHT22;11382;48.086;11.632;2023-06-04T05:28:09;25.10;89.70
22430;DHT22;11382;48.086;11.632;2023-06-04T05:30:39;25.70;82.90
22430;DHT22;11382;48.086;11.632;2023-06-04T05:33:09;26.10;79.10
22430;DHT22;11382;48.086;11.632;2023-06-04T05:35:51;26.00;73.00
22430;DHT22;11382;48.086;11.632;2023-06-04T05:38:21;25.70;72.10
22430;DHT22;11382;48.086;11.632;2023-06-04T05:40:56;25.50;69.20
22430;DHT22;11382;48.086;11.632;2023-06-04T05:43:28;25.90;68.50
22430;DHT22;11382;48.086;11.632;2023-06-04T05:45:56;26.70;69.60
22430;DHT22;11382;48.086;11.632;2023-06-04T05:48:24;27.70;65.70
22430;DHT22;11382;48.086;11.632;2023-06-04T05:50:53;27.70;65.50
22430;DHT22;11382;48.086;11.632;2023-06-04T05:53:21;27.80;62.00
22430;DHT22;11382;48.086;11.632;2023-06-04T05:55:51;27.30;59.90
22430;DHT22;11382;48.086;11.632;2023-06-04T05:58:20;26.70;60.90
22430;DHT22;11382;48.086;11.632;2023-06-04T06:00:48;26.70;61.80
22430;DHT22;11382;48.086;11.632;2023-06-04T06:03:18;27.00;60.00
22430;DHT22;11382;48.086;11.632;2023-06-04T06:05:48;28.50;59.80
22430;DHT22;11382;48.086;11.632;2023-06-04T06:08:16;29.40;58.20
22430;DHT22;11382;48.086;11.632;2023-06-04T06:10:44;29.90;55.60
22430;DHT22;11382;48.086;11.632;2023-06-04T06:13:12;30.20;55.30
22430;DHT22;11382;48.086;11.632;2023-06-04T06:15:42;30.60;55.40
22430;DHT22;11382;48.086;11.632;2023-06-04T06:18:11;31.10;54.80
22430;DHT22;11382;48.086;11.632;2023-06-04T06:20:39;31.20;53.00
22430;DHT22;11382;48.086;11.632;2023-06-04T06:23:08;31.50;52.30
22430;DHT22;11382;48.086;11.632;2023-06-04T06:25:40;31.90;51.90
22430;DHT22;11382;48.086;11.632;2023-06-04T06:28:14;31.40;49.10
22430;DHT22;11382;48.086;11.632;2023-06-04T06:30:46;32.20;50.50
22430;DHT22;11382;48.086;11.632;2023-06-04T06:33:14;33.00;49.60
22430;DHT22;11382;48.086;11.632;2023-06-04T06:35:42;32.90;49.60
22430;DHT22;11382;48.086;11.632;2023-06-04T06:38:13;33.20;48.20
22430;DHT22;11382;48.086;11.632;2023-06-04T06:40:44;33.00;47.80
22430;DHT22;11382;48.086;11.632;2023-06-04T06:43:12;33.50;47.90
22430;DHT22;11382;48.086;11.632;2023-06-04T06:45:40;33.30;47.80
22430;DHT22;11382;48.086;11.632;2023-06-04T06:48:09;33.10;48.60
22430;DHT22;11382;48.086;11.632;2023-06-04T06:50:37;33.20;47.80
22430;DHT22;11382;48.086;11.632;2023-06-04T06:53:05;34.20;45.90
22430;DHT22;11382;48.086;11.632;2023-06-04T06:55:33;34.00;46.70
22430;DHT22;11382;48.086;11.632;2023-06-04T06:58:01;34.90;44.50
22430;DHT22;11382;48.086;11.632;2023-06-04T07:00:29;35.00;44.30
22430;DHT22;11382;48.086;11.632;2023-06-04T07:02:57;36.00;42.70
22430;DHT22;11382;48.086;11.632;2023-06-04T07:05:27;34.80;44.20
22430;DHT22;11382;48.086;11.632;2023-06-04T07:07:54;36.40;43.90
22430;DHT22;11382;48.086;11.632;2023-06-04T07:10:23;36.90;41.70
22430;DHT22;11382;48.086;11.632;2023-06-04T07:12:52;37.50;41.00
22430;DHT22;11382;48.086;11.632;2023-06-04T07:15:20;37.00;40.80
22430;DHT22;11382;48.086;11.632;2023-06-04T07:17:48;37.20;40.70
22430;DHT22;11382;48.086;11.632;2023-06-04T07:20:16;36.70;40.10
22430;DHT22;11382;48.086;11.632;2023-06-04T07:22:46;37.90;40.10
22430;DHT22;11382;48.086;11.632;2023-06-04T07:25:14;37.20;41.10
22430;DHT22;11382;48.086;11.632;2023-06-04T07:27:42;37.40;40.90
22430;DHT22;11382;48.086;11.632;2023-06-04T07:30:10;36.80;41.10
22430;DHT22;11382;48.086;11.632;2023-06-04T07:32:38;36.90;39.80
22430;DHT22;11382;48.086;11.632;2023-06-04T07:35:07;37.40;39.70
22430;DHT22;11382;48.086;11.632;2023-06-04T07:37:35;37.70;40.50
22430;DHT22;11382;48.086;11.632;2023-06-04T07:40:05;38.30;40.30
22430;DHT22;11382;48.086;11.632;2023-06-04T07:42:34;36.80;39.30
22430;DHT22;11382;48.086;11.632;2023-06-04T07:45:02;37.00;41.10
22430;DHT22;11382;48.086;11.632;2023-06-04T07:47:30;36.80;41.10
22430;DHT22;11382;48.086;11.632;2023-06-04T07:49:58;37.00;40.40
22430;DHT22;11382;48.086;11.632;2023-06-04T07:52:29;38.20;40.30
22430;DHT22;11382;48.086;11.632;2023-06-04T07:54:57;36.90;39.60
22430;DHT22;11382;48.086;11.632;2023-06-04T07:57:27;36.90;40.30
22430;DHT22;11382;48.086;11.632;2023-06-04T07:59:55;38.40;39.10
22430;DHT22;11382;48.086;11.632;2023-06-04T08:02:23;38.50;39.20
22430;DHT22;11382;48.086;11.632;2023-06-04T08:04:52;37.60;39.30
22430;DHT22;11382;48.086;11.632;2023-06-04T08:07:21;37.60;40.10
22430;DHT22;11382;48.086;11.632;2023-06-04T08:09:49;37.90;38.20
22430;DHT22;11382;48.086;11.632;2023-06-04T08:12:18;37.30;38.80
22430;DHT22;11382;48.086;11.632;2023-06-04T08:14:48;37.00;39.80
22430;DHT22;11382;48.086;11.632;2023-06-04T08:17:17;38.30;38.60
22430;DHT22;11382;48.086;11.632;2023-06-04T08:19:45;36.90;39.30
22430;DHT22;11382;48.086;11.632;2023-06-04T08:22:12;37.30;39.40
22430;DHT22;11382;48.086;11.632;2023-06-04T08:24:40;37.50;39.30
22430;DHT22;11382;48.086;11.632;2023-06-04T08:27:08;38.20;39.10
22430;DHT22;11382;48.086;11.632;2023-06-04T08:29:36;37.90;37.60
22430;DHT22;11382;48.086;11.632;2023-06-04T08:32:07;38.50;37.60
22430;DHT22;11382;48.086;11.632;2023-06-04T08:34:36;38.40;37.30
22430;DHT22;11382;48.086;11.632;2023-06-04T08:37:04;38.10;36.30
22430;DHT22;11382;48.086;11.632;2023-06-04T08:39:32;38.60;37.40
22430;DHT22;11382;48.086;11.632;2023-06-04T08:42:04;38.90;37.80
22430;DHT22;11382;48.086;11.632;2023-06-04T08:44:34;39.80;36.50
22430;DHT22;11382;48.086;11.632;2023-06-04T08:47:04;40.60;35.50
22430;DHT22;11382;48.086;11.632;2023-06-04T08:49:35;39.70;35.30
22430;DHT22;11382;48.086;11.632;2023-06-04T08:52:04;39.60;35.60
22430;DHT22;11382;48.086;11.632;2023-06-04T08:54:33;40.70;34.70
22430;DHT22;11382;48.086;11.632;2023-06-04T08:57:01;37.60;38.40
22430;DHT22;11382;48.086;11.632;2023-06-04T08:59:29;38.90;38.20
22430;DHT22;11382;48.086;11.632;2023-06-04T09:01:58;37.30;36.60
22430;DHT22;11382;48.086;11.632;2023-06-04T09:04:26;38.80;36.50
22430;DHT22;11382;48.086;11.632;2023-06-04T09:07:01;37.90;37.10
22430;DHT22;11382;48.086;11.632;2023-06-04T09:09:31;38.00;37.60
22430;DHT22;11382;48.086;11.632;2023-06-04T09:12:02;39.00;36.60
22430;DHT22;11382;48.086;11.632;2023-06-04T09:14:31;38.70;36.10
22430;DHT22;11382;48.086;11.632;2023-06-04T09:16:59;39.30;34.70
22430;DHT22;11382;48.086;11.632;2023-06-04T09:19:27;39.00;35.70
22430;DHT22;11382;48.086;11.632;2023-06-04T09:21:58;39.40;35.40
22430;DHT22;11382;48.086;11.632;2023-06-04T09:24:38;39.00;36.20
22430;DHT22;11382;48.086;11.632;2023-06-04T09:27:10;37.50;36.20
22430;DHT22;11382;48.086;11.632;2023-06-04T09:29:39;35.70;39.00
22430;DHT22;11382;48.086;11.632;2023-06-04T09:32:07;37.20;37.80
22430;DHT22;11382;48.086;11.632;2023-06-04T09:34:35;38.30;37.60
22430;DHT22;11382;48.086;11.632;2023-06-04T09:37:15;38.60;35.10
22430;DHT22;11382;48.086;11.632;2023-06-04T09:39:44;39.60;35.40
22430;DHT22;11382;48.086;11.632;2023-06-04T09:42:12;39.30;34.70
22430;DHT22;11382;48.086;11.632;2023-06-04T09:44:43;38.20;34.20
22430;DHT22;11382;48.086;11.632;2023-06-04T09:47:12;37.00;35.90
22430;DHT22;11382;48.086;11.632;2023-06-04T09:49:40;37.30;34.90
22430;DHT22;11382;48.086;11.632;2023-06-04T09:52:09;37.10;34.80
22430;DHT22;11382;48.086;11.632;2023-06-04T09:54:40;37.10;36.10
22430;DHT22;11382;48.086;11.632;2023-06-04T09:57:14;37.80;35.60
22430;DHT22;11382;48.086;11.632;2023-06-04T09:59:45;37.40;35.30
22430;DHT22;11382;48.086;11.632;2023-06-04T10:02:13;36.40;35.60
22430;DHT22;11382;48.086;11.632;2023-06-04T10:04:49;38.10;35.10
22430;DHT22;11382;48.086;11.632;2023-06-04T10:07:21;38.90;35.50
22430;DHT22;11382;48.086;11.632;2023-06-04T10:09:52;36.90;33.80
22430;DHT22;11382;48.086;11.632;2023-06-04T10:12:23;37.00;35.80
22430;DHT22;11382;48.086;11.632;2023-06-04T10:14:56;36.90;35.00
22430;DHT22;11382;48.086;11.632;2023-06-04T10:17:25;36.80;34.70
22430;DHT22;11382;48.086;11.632;2023-06-04T10:19:56;37.20;34.70
22430;DHT22;11382;48.086;11.632;2023-06-04T10:22:26;36.70;34.00
22430;DHT22;11382;48.086;11.632;2023-06-04T10:24:57;35.30;35.10
22430;DHT22;11382;48.086;11.632;2023-06-04T10:27:25;36.00;35.70
22430;DHT22;11382;48.086;11.632;2023-06-04T10:29:54;36.00;35.10
22430;DHT22;11382;48.086;11.632;2023-06-04T10:32:22;36.00;35.50
22430;DHT22;11382;48.086;11.632;2023-06-04T10:34:50;36.30;34.60
22430;DHT22;11382;48.086;11.632;2023-06-04T10:37:19;38.20;33.40
22430;DHT22;11382;48.086;11.632;2023-06-04T10:39:51;38.60;32.00
22430;DHT22;11382;48.086;11.632;2023-06-04T10:42:22;37.40;33.20
22430;DHT22;11382;48.086;11.632;2023-06-04T10:44:52;36.50;33.00
22430;DHT22;11382;48.086;11.632;2023-06-04T10:47:25;36.60;34.90
22430;DHT22;11382;48.086;11.632;2023-06-04T10:49:54;38.70;32.80
22430;DHT22;11382;48.086;11.632;2023-06-04T10:52:22;37.90;33.50
22430;DHT22;11382;48.086;11.632;2023-06-04T10:54:50;36.30;33.90
22430;DHT22;11382;48.086;11.632;2023-06-04T10:57:21;35.50;34.80
22430;DHT22;11382;48.086;11.632;2023-06-04T10:59:56;36.20;35.30
22430;DHT22;11382;48.086;11.632;2023-06-04T11:02:24;36.90;34.50
22430;DHT22;11382;48.086;11.632;2023-06-04T11:05:00;38.20;34.80
22430;DHT22;11382;48.086;11.632;2023-06-04T11:07:41;40.40;33.10
22430;DHT22;11382;48.086;11.632;2023-06-04T11:10:10;39.90;32.30
22430;DHT22;11382;48.086;11.632;2023-06-04T11:12:44;39.40;32.10
22430;DHT22;11382;48.086;11.632;2023-06-04T11:15:13;37.00;33.10
22430;DHT22;11382;48.086;11.632;2023-06-04T11:17:52;37.50;33.50
22430;DHT22;11382;48.086;11.632;2023-06-04T11:20:21;37.10;33.80
22430;DHT22;11382;48.086;11.632;2023-06-04T11:22:51;35.50;36.00
22430;DHT22;11382;48.086;11.632;2023-06-04T11:25:20;35.30;34.90
22430;DHT22;11382;48.086;11.632;2023-06-04T11:27:52;34.00;37.90
22430;DHT22;11382;48.086;11.632;2023-06-04T11:30:21;35.10;37.00
22430;DHT22;11382;48.086;11.632;2023-06-04T11:32:49;36.30;36.70
22430;DHT22;11382;48.086;11.632;2023-06-04T11:35:17;35.70;36.20
22430;DHT22;11382;48.086;11.632;2023-06-04T11:37:53;35.20;36.30
22430;DHT22;11382;48.086;11.632;2023-06-04T11:40:21;36.50;36.30
22430;DHT22;11382;48.086;11.632;2023-06-04T11:42:51;37.00;35.40
22430;DHT22;11382;48.086;11.632;2023-06-04T11:45:20;36.40;35.20
22430;DHT22;11382;48.086;11.632;2023-06-04T11:47:51;36.00;36.10
22430;DHT22;11382;48.086;11.632;2023-06-04T11:50:19;33.90;37.60
22430;DHT22;11382;48.086;11.632;2023-06-04T11:52:47;33.20;38.50
22430;DHT22;11382;48.086;11.632;2023-06-04T11:55:16;32.60;40.00
22430;DHT22;11382;48.086;11.632;2023-06-04T11:57:48;31.20;41.40
22430;DHT22;11382;48.086;11.632;2023-06-04T12:00:18;30.50;43.00
22430;DHT22;11382;48.086;11.632;2023-06-04T12:02:51;29.70;44.50
22430;DHT22;11382;48.086;11.632;2023-06-04T12:05:22;29.30;44.40
22430;DHT22;11382;48.086;11.632;2023-06-04T12:07:51;29.30;43.40
22430;DHT22;11382;48.086;11.632;2023-06-04T12:10:20;29.30;45.00
22430;DHT22;11382;48.086;11.632;2023-06-04T12:12:54;29.10;45.70
22430;DHT22;11382;48.086;11.632;2023-06-04T12:15:24;29.40;48.50
22430;DHT22;11382;48.086;11.632;2023-06-04T12:17:53;28.50;45.10
22430;DHT22;11382;48.086;11.632;2023-06-04T12:20:32;27.90;47.60
22430;DHT22;11382;48.086;11.632;2023-06-04T12:23:01;27.50;47.60
22430;DHT22;11382;48.086;11.632;2023-06-04T12:25:30;27.00;47.90
22430;DHT22;11382;48.086;11.632;2023-06-04T12:27:58;27.10;47.70
22430;DHT22;11382;48.086;11.632;2023-06-04T12:30:36;26.60;47.80
22430;DHT22;11382;48.086;11.632;2023-06-04T12:33:04;26.70;48.60
22430;DHT22;11382;48.086;11.632;2023-06-04T12:35:33;26.20;48.80
22430;DHT22;11382;48.086;11.632;2023-06-04T12:38:03;26.20;49.60
22430;DHT22;11382;48.086;11.632;2023-06-04T12:40:31;25.80;49.70
22430;DHT22;11382;48.086;11.632;2023-06-04T12:42:59;26.20;52.30
22430;DHT22;11382;48.086;11.632;2023-06-04T12:45:27;26.10;51.10
22430;DHT22;11382;48.086;11.632;2023-06-04T12:47:57;26.30;52.30
22430;DHT22;11382;48.086;11.632;2023-06-04T12:50:25;26.20;48.50
22430;DHT22;11382;48.086;11.632;2023-06-04T12:52:53;26.40;48.70
22430;DHT22;11382;48.086;11.632;2023-06-04T12:55:21;26.20;47.40
22430;DHT22;11382;48.086;11.632;2023-06-04T12:57:51;26.00;50.00
22430;DHT22;11382;48.086;11.632;2023-06-04T13:00:19;25.90;49.50
22430;DHT22;11382;48.086;11.632;2023-06-04T13:02:47;25.50;49.90
22430;DHT22;11382;48.086;11.632;2023-06-04T13:05:16;25.50;49.50
22430;DHT22;11382;48.086;11.632;2023-06-04T13:07:44;26.00;48.90
22430;DHT22;11382;48.086;11.632;2023-06-04T13:10:12;25.90;48.00
22430;DHT22;11382;48.086;11.632;2023-06-04T13:12:40;25.60;48.60
22430;DHT22;11382;48.086;11.632;2023-06-04T13:15:09;26.00;48.70
22430;DHT22;11382;48.086;11.632;2023-06-04T13:17:37;26.00;47.80
22430;DHT22;11382;48.086;11.632;2023-06-04T13:20:07;25.70;47.50
22430;DHT22;11382;48.086;11.632;2023-06-04T13:22:37;26.10;47.80
22430;DHT22;11382;48.086;11.632;2023-06-04T13:25:06;26.40;48.40
22430;DHT22;11382;48.086;11.632;2023-06-04T13:27:34;26.40;48.40
22430;DHT22;11382;48.086;11.632;2023-06-04T13:30:02;26.00;48.60
22430;DHT22;11382;48.086;11.632;2023-06-04T13:32:30;25.50;48.50
22430;DHT22;11382;48.086;11.632;2023-06-04T13:34:58;25.50;48.50
22430;DHT22;11382;48.086;11.632;2023-06-04T13:37:26;25.60;49.50
22430;DHT22;11382;48.086;11.632;2023-06-04T13:39:55;25.70;50.20
22430;DHT22;11382;48.086;11.632;2023-06-04T13:42:23;25.90;48.30
22430;DHT22;11382;48.086;11.632;2023-06-04T13:44:51;25.60;47.60
22430;DHT22;11382;48.086;11.632;2023-06-04T13:47:19;25.30;49.00
22430;DHT22;11382;48.086;11.632;2023-06-04T13:49:48;25.20;49.70
22430;DHT22;11382;48.086;11.632;2023-06-04T13:52:16;25.40;48.90
22430;DHT22;11382;48.086;11.632;2023-06-04T13:54:44;25.10;49.20
22430;DHT22;11382;48.086;11.632;2023-06-04T13:57:14;25.10;49.40
22430;DHT22;11382;48.086;11.632;2023-06-04T13:59:42;25.40;48.10
22430;DHT22;11382;48.086;11.632;2023-06-04T14:02:10;25.40;48.50
22430;DHT22;11382;48.086;11.632;2023-06-04T14:04:38;25.70;48.60
22430;DHT22;11382;48.086;11.632;2023-06-04T14:07:06;25.80;51.10
22430;DHT22;11382;48.086;11.632;2023-06-04T14:09:34;25.60;49.90
22430;DHT22;11382;48.086;11.632;2023-06-04T14:12:03;25.40;49.50
22430;DHT22;11382;48.086;11.632;2023-06-04T14:14:33;25.40;49.70
22430;DHT22;11382;48.086;11.632;2023-06-04T14:17:04;25.70;52.90
22430;DHT22;11382;48.086;11.632;2023-06-04T14:19:32;25.60;49.50
22430;DHT22;11382;48.086;11.632;2023-06-04T14:22:00;25.60;50.40
22430;DHT22;11382;48.086;11.632;2023-06-04T14:24:28;25.90;51.70
22430;DHT22;11382;48.086;11.632;2023-06-04T14:26:57;25.40;50.70
22430;DHT22;11382;48.086;11.632;2023-06-04T14:29:25;25.50;51.30
22430;DHT22;11382;48.086;11.632;2023-06-04T14:31:54;25.30;50.50
22430;DHT22;11382;48.086;11.632;2023-06-04T14:34:22;25.30;49.20
22430;DHT22;11382;48.086;11.632;2023-06-04T14:36:50;25.20;50.70
22430;DHT22;11382;48.086;11.632;2023-06-04T14:39:18;25.40;51.40
22430;DHT22;11382;48.086;11.632;2023-06-04T14:41:48;25.30;50.10
22430;DHT22;11382;48.086;11.632;2023-06-04T14:44:17;25.30;50.10
22430;DHT22;11382;48.086;11.632;2023-06-04T14:46:45;25.20;48.70
22430;DHT22;11382;48.086;11.632;2023-06-04T14:49:15;24.90;49.70
22430;DHT22;11382;48.086;11.632;2023-06-04T14:51:43;25.20;49.30
22430;DHT22;11382;48.086;11.632;2023-06-04T14:54:11;25.10;50.70
22430;DHT22;11382;48.086;11.632;2023-06-04T14:56:39;24.80;51.70
22430;DHT22;11382;48.086;11.632;2023-06-04T14:59:07;24.70;52.70
22430;DHT22;11382;48.086;11.632;2023-06-04T15:01:38;24.70;52.30
22430;DHT22;11382;48.086;11.632;2023-06-04T15:04:07;25.10;52.30
22430;DHT22;11382;48.086;11.632;2023-06-04T15:06:37;25.20;50.00
22430;DHT22;11382;48.086;11.632;2023-06-04T15:09:05;24.80;50.50
22430;DHT22;11382;48.086;11.632;2023-06-04T15:11:34;24.40;51.40
22430;DHT22;11382;48.086;11.632;2023-06-04T15:14:01;24.20;51.70
22430;DHT22;11382;48.086;11.632;2023-06-04T15:16:30;24.30;52.00
22430;DHT22;11382;48.086;11.632;2023-06-04T15:18:58;24.40;51.40
22430;DHT22;11382;48.086;11.632;2023-06-04T15:21:26;24.40;51.60
22430;DHT22;11382;48.086;11.632;2023-06-04T15:23:55;24.40;51.40
22430;DHT22;11382;48.086;11.632;2023-06-04T15:26:23;24.60;51.30
22430;DHT22;11382;48.086;11.632;2023-06-04T15:28:53;24.40;52.00
22430;DHT22;11382;48.086;11.632;2023-06-04T15:31:23;24.60;51.30